Aérodrome :
LOGIN :

S'inscrire | Disclaimer

   EN    FR    IT 

 










Légende :    VFR   VFR Marginal   IFR   IFR Intensif   IFR Très Intensif
Visi : 
Plafond : 
>= 8 km
>= 3000ft
5 à 8 km
1000 à 3000 ft
1500m à 5 km
500 à 1000 ft
800 à 1500m
200 à 500 ft
< 800m
< 200 ft
Symboles :   Orages  Brouillard  Fortes neiges  Fortes précipitations  Vent > 20 kt
SIGMETs :   Divers  Orages  Givrage  Turbulence  Onde Orograph.  Cendres Volcan.






- Altitude de l'aérodrome : 63 ft
- Code IATA : BZM


EHWO - Woensdrecht Airbase

DERNIER METAR :
  • 051355Z AUTO VRB05KT 9999 FEW041 SCT051 OVC330 22/13 Q1006 BLU

METARs EXPIRÉS :
  • 051325Z AUTO 19005KT 100V230 9999 FEW041 SCT076 BKN096 24/13 Q1007 BLU TEMPO VRB03KT
  • 051255Z AUTO VRB04KT 9999 SCT089 SCT094 BKN300 23/14 Q1007 BLU TEMPO VRB03KT
  • 051225Z AUTO VRB01KT 9999 FEW032 SCT057 BKN087 22/14 Q1007 BLU TEMPO VRB03KT
  • 051155Z AUTO VRB02KT 9999 BKN037 BKN041 OVC100 21/15 Q1008 BLU TEMPO VRB05KT 4000 SHRA SCT025CB BKN030
  • 051125Z AUTO VRB01KT 9999 SCT033 SCT039 BKN093 21/14 Q1008 BLU TEMPO VRB05KT 4000 SHRA SCT025CB BKN030

TAF TAF EHWO
Valide du 05 à 09h jusqu'au 05 à 21h UTC


050823Z 0509/0521 VRB02KT 9999 SCT025
TEMPO 0511/0517 4000 -SHRA SCT025CB
BECMG 0512/0514 18005KT



MET'MAP, la Météo Aéronautique d'un coup d'oeil ! - Copyright ORBIFLY Décembre 2007 - Disclaimer

ORBIFLY MET'MAP TEAM :

Programmation & Développement : Alexandra Zaïnal
Sur une idée originale de : Baudouin d'Aumeries
Assistance à la programmation : Marc-Olivier Méhu
Soutien technique & logistique : Manuel Goepfert

Contact : metmap@orbifly.com




SOURCES & CREDITS :

   NOAA